sensor_id;sensor_type;location;lat;lon;timestamp;temperature;humidity
10468;DHT22;5281;48.878;9.394;2023-04-03T00:00:37;5.60;99.90
10468;DHT22;5281;48.878;9.394;2023-04-03T00:03:04;5.60;99.90
10468;DHT22;5281;48.878;9.394;2023-04-03T00:05:30;5.50;99.90
10468;DHT22;5281;48.878;9.394;2023-04-03T00:07:58;5.50;99.90
10468;DHT22;5281;48.878;9.394;2023-04-03T00:10:27;5.50;99.90
10468;DHT22;5281;48.878;9.394;2023-04-03T00:12:54;5.40;99.90
10468;DHT22;5281;48.878;9.394;2023-04-03T00:15:21;5.50;99.90
10468;DHT22;5281;48.878;9.394;2023-04-03T00:17:47;5.40;99.90
10468;DHT22;5281;48.878;9.394;2023-04-03T00:20:14;5.40;99.90
10468;DHT22;5281;48.878;9.394;2023-04-03T00:22:41;5.20;99.90
10468;DHT22;5281;48.878;9.394;2023-04-03T00:25:09;5.20;99.90
10468;DHT22;5281;48.878;9.394;2023-04-03T00:27:36;5.20;99.90
10468;DHT22;5281;48.878;9.394;2023-04-03T00:30:04;5.20;99.90
10468;DHT22;5281;48.878;9.394;2023-04-03T00:32:31;5.10;99.90
10468;DHT22;5281;48.878;9.394;2023-04-03T00:34:58;5.00;99.90
10468;DHT22;5281;48.878;9.394;2023-04-03T00:37:25;4.90;99.90
10468;DHT22;5281;48.878;9.394;2023-04-03T00:39:51;4.90;99.90
10468;DHT22;5281;48.878;9.394;2023-04-03T00:42:19;4.70;99.90
10468;DHT22;5281;48.878;9.394;2023-04-03T00:48:07;4.40;99.90
10468;DHT22;5281;48.878;9.394;2023-04-03T00:50:38;4.20;99.90
10468;DHT22;5281;48.878;9.394;2023-04-03T00:53:06;4.20;99.90
10468;DHT22;5281;48.878;9.394;2023-04-03T00:55:35;4.10;99.90
10468;DHT22;5281;48.878;9.394;2023-04-03T00:58:05;4.00;99.90
10468;DHT22;5281;48.878;9.394;2023-04-03T01:00:32;4.00;99.90
10468;DHT22;5281;48.878;9.394;2023-04-03T01:02:59;3.90;99.90
10468;DHT22;5281;48.878;9.394;2023-04-03T01:05:26;3.90;99.90
10468;DHT22;5281;48.878;9.394;2023-04-03T01:07:53;3.80;99.90
10468;DHT22;5281;48.878;9.394;2023-04-03T01:10:20;3.70;99.90
10468;DHT22;5281;48.878;9.394;2023-04-03T01:12:49;3.70;99.90
10468;DHT22;5281;48.878;9.394;2023-04-03T01:15:20;3.60;99.90
10468;DHT22;5281;48.878;9.394;2023-04-03T01:17:50;3.60;99.90
10468;DHT22;5281;48.878;9.394;2023-04-03T01:20:50;3.60;99.90
10468;DHT22;5281;48.878;9.394;2023-04-03T01:23:30;3.60;99.90
10468;DHT22;5281;48.878;9.394;2023-04-03T01:25:59;3.60;99.90
10468;DHT22;5281;48.878;9.394;2023-04-03T01:28:28;3.50;99.90
10468;DHT22;5281;48.878;9.394;2023-04-03T01:31:02;3.50;99.90
10468;DHT22;5281;48.878;9.394;2023-04-03T01:33:31;3.50;99.90
10468;DHT22;5281;48.878;9.394;2023-04-03T01:35:59;3.60;99.90
10468;DHT22;5281;48.878;9.394;2023-04-03T01:38:25;3.70;99.90
10468;DHT22;5281;48.878;9.394;2023-04-03T01:40:52;3.70;99.90
10468;DHT22;5281;48.878;9.394;2023-04-03T01:43:19;3.80;99.90
10468;DHT22;5281;48.878;9.394;2023-04-03T01:45:46;3.90;99.90
10468;DHT22;5281;48.878;9.394;2023-04-03T01:48:15;4.00;99.90
10468;DHT22;5281;48.878;9.394;2023-04-03T01:50:43;4.10;99.90
10468;DHT22;5281;48.878;9.394;2023-04-03T01:53:10;4.20;99.90
10468;DHT22;5281;48.878;9.394;2023-04-03T01:55:37;4.30;99.90
10468;DHT22;5281;48.878;9.394;2023-04-03T01:58:03;4.50;99.90
10468;DHT22;5281;48.878;9.394;2023-04-03T02:00:30;4.60;99.90
10468;DHT22;5281;48.878;9.394;2023-04-03T02:02:57;4.70;99.90
10468;DHT22;5281;48.878;9.394;2023-04-03T02:05:24;4.90;99.90
10468;DHT22;5281;48.878;9.394;2023-04-03T02:07:52;5.00;99.90
10468;DHT22;5281;48.878;9.394;2023-04-03T02:10:19;5.10;99.90
10468;DHT22;5281;48.878;9.394;2023-04-03T02:12:45;5.20;99.90
10468;DHT22;5281;48.878;9.394;2023-04-03T02:15:12;5.20;99.90
10468;DHT22;5281;48.878;9.394;2023-04-03T02:17:39;5.10;99.90
10468;DHT22;5281;48.878;9.394;2023-04-03T02:20:07;5.10;99.90
10468;DHT22;5281;48.878;9.394;2023-04-03T02:22:34;5.20;99.90
10468;DHT22;5281;48.878;9.394;2023-04-03T02:25:33;5.20;99.90
10468;DHT22;5281;48.878;9.394;2023-04-03T02:28:00;5.20;99.90
10468;DHT22;5281;48.878;9.394;2023-04-03T02:30:27;5.10;99.90
10468;DHT22;5281;48.878;9.394;2023-04-03T02:32:53;5.20;99.90
10468;DHT22;5281;48.878;9.394;2023-04-03T02:35:21;5.20;99.90
10468;DHT22;5281;48.878;9.394;2023-04-03T02:37:48;5.10;99.90
10468;DHT22;5281;48.878;9.394;2023-04-03T02:40:14;5.10;99.90
10468;DHT22;5281;48.878;9.394;2023-04-03T02:42:43;5.20;99.90
10468;DHT22;5281;48.878;9.394;2023-04-03T02:45:10;5.20;99.90
10468;DHT22;5281;48.878;9.394;2023-04-03T02:47:37;5.30;99.90
10468;DHT22;5281;48.878;9.394;2023-04-03T02:50:05;5.40;99.90
10468;DHT22;5281;48.878;9.394;2023-04-03T02:52:31;5.40;99.90
10468;DHT22;5281;48.878;9.394;2023-04-03T02:54:58;5.50;99.90
10468;DHT22;5281;48.878;9.394;2023-04-03T02:57:25;5.50;99.90
10468;DHT22;5281;48.878;9.394;2023-04-03T02:59:53;5.50;99.90
10468;DHT22;5281;48.878;9.394;2023-04-03T03:02:20;5.40;99.90
10468;DHT22;5281;48.878;9.394;2023-04-03T03:04:47;5.40;99.90
10468;DHT22;5281;48.878;9.394;2023-04-03T03:07:13;5.30;99.90
10468;DHT22;5281;48.878;9.394;2023-04-03T03:09:40;5.40;99.90
10468;DHT22;5281;48.878;9.394;2023-04-03T03:12:07;5.40;99.90
10468;DHT22;5281;48.878;9.394;2023-04-03T03:14:33;5.40;99.90
10468;DHT22;5281;48.878;9.394;2023-04-03T03:17:01;5.40;99.90
10468;DHT22;5281;48.878;9.394;2023-04-03T03:19:28;5.50;99.90
10468;DHT22;5281;48.878;9.394;2023-04-03T03:21:55;5.60;99.90
10468;DHT22;5281;48.878;9.394;2023-04-03T03:24:22;5.70;99.90
10468;DHT22;5281;48.878;9.394;2023-04-03T03:26:49;5.70;99.90
10468;DHT22;5281;48.878;9.394;2023-04-03T03:29:15;5.80;99.90
10468;DHT22;5281;48.878;9.394;2023-04-03T03:31:42;5.70;99.90
10468;DHT22;5281;48.878;9.394;2023-04-03T03:34:10;5.70;99.90
10468;DHT22;5281;48.878;9.394;2023-04-03T03:36:37;5.60;99.90
10468;DHT22;5281;48.878;9.394;2023-04-03T03:39:04;5.60;99.90
10468;DHT22;5281;48.878;9.394;2023-04-03T03:41:31;5.60;99.90
10468;DHT22;5281;48.878;9.394;2023-04-03T03:43:58;5.60;99.90
10468;DHT22;5281;48.878;9.394;2023-04-03T03:46:25;5.50;99.90
10468;DHT22;5281;48.878;9.394;2023-04-03T03:48:51;5.50;99.90
10468;DHT22;5281;48.878;9.394;2023-04-03T03:51:19;5.50;99.90
10468;DHT22;5281;48.878;9.394;2023-04-03T03:53:46;5.50;99.90
10468;DHT22;5281;48.878;9.394;2023-04-03T03:56:13;5.40;99.90
10468;DHT22;5281;48.878;9.394;2023-04-03T03:58:40;5.50;99.90
10468;DHT22;5281;48.878;9.394;2023-04-03T04:01:07;5.60;99.90
10468;DHT22;5281;48.878;9.394;2023-04-03T04:03:34;5.60;99.90
10468;DHT22;5281;48.878;9.394;2023-04-03T04:06:01;5.50;99.90
10468;DHT22;5281;48.878;9.394;2023-04-03T04:08:29;5.40;99.90
10468;DHT22;5281;48.878;9.394;2023-04-03T04:10:55;5.40;99.90
10468;DHT22;5281;48.878;9.394;2023-04-03T04:13:22;5.50;99.90
10468;DHT22;5281;48.878;9.394;2023-04-03T04:15:49;5.50;99.90
10468;DHT22;5281;48.878;9.394;2023-04-03T04:18:16;5.50;99.90
10468;DHT22;5281;48.878;9.394;2023-04-03T04:20:45;5.50;99.90
10468;DHT22;5281;48.878;9.394;2023-04-03T04:23:11;5.50;99.90
10468;DHT22;5281;48.878;9.394;2023-04-03T04:25:39;5.50;99.90
10468;DHT22;5281;48.878;9.394;2023-04-03T04:28:06;5.90;99.90
10468;DHT22;5281;48.878;9.394;2023-04-03T04:30:33;5.70;99.90
10468;DHT22;5281;48.878;9.394;2023-04-03T04:33:00;5.80;99.90
10468;DHT22;5281;48.878;9.394;2023-04-03T04:35:26;5.70;99.90
10468;DHT22;5281;48.878;9.394;2023-04-03T04:37:53;5.80;99.90
10468;DHT22;5281;48.878;9.394;2023-04-03T04:40:20;5.70;99.90
10468;DHT22;5281;48.878;9.394;2023-04-03T04:42:48;5.80;99.90
10468;DHT22;5281;48.878;9.394;2023-04-03T04:45:15;5.80;99.90
10468;DHT22;5281;48.878;9.394;2023-04-03T04:47:42;5.80;99.90
10468;DHT22;5281;48.878;9.394;2023-04-03T04:50:09;5.70;99.90
10468;DHT22;5281;48.878;9.394;2023-04-03T04:52:39;5.60;99.90
10468;DHT22;5281;48.878;9.394;2023-04-03T04:55:07;5.50;99.90
10468;DHT22;5281;48.878;9.394;2023-04-03T04:57:34;5.40;99.90
10468;DHT22;5281;48.878;9.394;2023-04-03T05:00:04;5.40;99.90
10468;DHT22;5281;48.878;9.394;2023-04-03T05:02:31;5.50;99.90
10468;DHT22;5281;48.878;9.394;2023-04-03T05:04:58;5.50;99.90
10468;DHT22;5281;48.878;9.394;2023-04-03T05:07:25;5.40;99.90
10468;DHT22;5281;48.878;9.394;2023-04-03T05:09:51;5.30;99.90
10468;DHT22;5281;48.878;9.394;2023-04-03T05:12:18;5.20;99.90
10468;DHT22;5281;48.878;9.394;2023-04-03T05:14:45;5.10;99.90
10468;DHT22;5281;48.878;9.394;2023-04-03T05:17:13;5.00;99.90
10468;DHT22;5281;48.878;9.394;2023-04-03T05:19:40;4.90;99.90
10468;DHT22;5281;48.878;9.394;2023-04-03T05:22:07;4.70;99.90
10468;DHT22;5281;48.878;9.394;2023-04-03T05:24:33;4.70;99.90
10468;DHT22;5281;48.878;9.394;2023-04-03T05:27:00;4.70;99.90
10468;DHT22;5281;48.878;9.394;2023-04-03T05:29:27;4.70;99.90
10468;DHT22;5281;48.878;9.394;2023-04-03T05:31:54;4.70;99.90
10468;DHT22;5281;48.878;9.394;2023-04-03T05:34:23;4.70;99.90
10468;DHT22;5281;48.878;9.394;2023-04-03T05:36:50;4.80;99.90
10468;DHT22;5281;48.878;9.394;2023-04-03T05:39:16;4.80;99.90
10468;DHT22;5281;48.878;9.394;2023-04-03T05:41:43;4.90;99.90
10468;DHT22;5281;48.878;9.394;2023-04-03T05:44:10;5.00;99.90
10468;DHT22;5281;48.878;9.394;2023-04-03T05:46:37;5.10;99.90
10468;DHT22;5281;48.878;9.394;2023-04-03T05:49:04;5.10;99.90
10468;DHT22;5281;48.878;9.394;2023-04-03T05:51:34;5.20;99.90
10468;DHT22;5281;48.878;9.394;2023-04-03T05:54:06;5.30;99.90
10468;DHT22;5281;48.878;9.394;2023-04-03T05:56:36;5.30;99.90
10468;DHT22;5281;48.878;9.394;2023-04-03T05:59:02;5.30;99.90
10468;DHT22;5281;48.878;9.394;2023-04-03T06:01:29;5.40;99.90
10468;DHT22;5281;48.878;9.394;2023-04-03T06:03:56;5.50;99.90
10468;DHT22;5281;48.878;9.394;2023-04-03T06:06:24;5.60;99.90
10468;DHT22;5281;48.878;9.394;2023-04-03T06:08:52;5.70;99.90
10468;DHT22;5281;48.878;9.394;2023-04-03T06:11:18;5.70;99.90
10468;DHT22;5281;48.878;9.394;2023-04-03T06:13:46;5.80;99.90
10468;DHT22;5281;48.878;9.394;2023-04-03T06:16:15;5.90;99.90
10468;DHT22;5281;48.878;9.394;2023-04-03T06:18:43;6.00;99.90
10468;DHT22;5281;48.878;9.394;2023-04-03T06:21:10;6.00;99.90
10468;DHT22;5281;48.878;9.394;2023-04-03T06:23:36;6.20;99.90
10468;DHT22;5281;48.878;9.394;2023-04-03T06:26:04;6.30;99.90
10468;DHT22;5281;48.878;9.394;2023-04-03T06:28:32;6.40;99.90
10468;DHT22;5281;48.878;9.394;2023-04-03T06:30:59;6.50;99.90
10468;DHT22;5281;48.878;9.394;2023-04-03T06:33:26;6.50;99.90
10468;DHT22;5281;48.878;9.394;2023-04-03T06:35:56;6.40;99.90
10468;DHT22;5281;48.878;9.394;2023-04-03T06:38:23;6.40;99.90
10468;DHT22;5281;48.878;9.394;2023-04-03T06:40:50;6.40;99.90
10468;DHT22;5281;48.878;9.394;2023-04-03T06:43:19;6.40;99.90
10468;DHT22;5281;48.878;9.394;2023-04-03T06:45:46;6.40;99.90
10468;DHT22;5281;48.878;9.394;2023-04-03T06:48:13;6.60;99.90
10468;DHT22;5281;48.878;9.394;2023-04-03T06:50:41;6.60;99.90
10468;DHT22;5281;48.878;9.394;2023-04-03T06:53:07;6.60;99.90
10468;DHT22;5281;48.878;9.394;2023-04-03T06:55:34;6.70;99.90
10468;DHT22;5281;48.878;9.394;2023-04-03T06:58:01;6.80;99.90
10468;DHT22;5281;48.878;9.394;2023-04-03T07:00:30;6.90;99.90
10468;DHT22;5281;48.878;9.394;2023-04-03T07:02:57;7.10;99.90
10468;DHT22;5281;48.878;9.394;2023-04-03T07:05:24;7.20;99.90
10468;DHT22;5281;48.878;9.394;2023-04-03T07:07:51;7.40;99.90
10468;DHT22;5281;48.878;9.394;2023-04-03T07:10:18;7.50;99.90
10468;DHT22;5281;48.878;9.394;2023-04-03T07:12:45;7.70;99.90
10468;DHT22;5281;48.878;9.394;2023-04-03T07:15:12;7.90;99.90
10468;DHT22;5281;48.878;9.394;2023-04-03T07:17:41;8.20;99.90
10468;DHT22;5281;48.878;9.394;2023-04-03T07:20:08;8.60;99.90
10468;DHT22;5281;48.878;9.394;2023-04-03T07:22:36;9.10;99.90
10468;DHT22;5281;48.878;9.394;2023-04-03T07:25:03;10.20;99.90
10468;DHT22;5281;48.878;9.394;2023-04-03T07:27:33;10.90;99.80
10468;DHT22;5281;48.878;9.394;2023-04-03T07:29:59;11.50;98.90
10468;DHT22;5281;48.878;9.394;2023-04-03T07:32:26;12.30;98.00
10468;DHT22;5281;48.878;9.394;2023-04-03T07:34:54;12.80;96.80
10468;DHT22;5281;48.878;9.394;2023-04-03T07:37:21;13.20;96.30
10468;DHT22;5281;48.878;9.394;2023-04-03T07:39:47;13.80;94.70
10468;DHT22;5281;48.878;9.394;2023-04-03T07:42:14;13.80;94.40
10468;DHT22;5281;48.878;9.394;2023-04-03T07:44:41;13.50;94.50
10468;DHT22;5281;48.878;9.394;2023-04-03T07:47:08;13.50;94.30
10468;DHT22;5281;48.878;9.394;2023-04-03T07:49:35;13.70;93.90
10468;DHT22;5281;48.878;9.394;2023-04-03T07:52:07;13.70;93.40
10468;DHT22;5281;48.878;9.394;2023-04-03T07:54:34;13.10;93.70
10468;DHT22;5281;48.878;9.394;2023-04-03T07:57:01;12.20;94.40
10468;DHT22;5281;48.878;9.394;2023-04-03T07:59:28;11.10;95.60
10468;DHT22;5281;48.878;9.394;2023-04-03T08:01:55;10.00;96.90
10468;DHT22;5281;48.878;9.394;2023-04-03T08:04:22;9.40;98.40
10468;DHT22;5281;48.878;9.394;2023-04-03T08:06:49;9.30;99.00
10468;DHT22;5281;48.878;9.394;2023-04-03T08:09:18;9.80;98.90
10468;DHT22;5281;48.878;9.394;2023-04-03T08:11:45;9.90;98.50
10468;DHT22;5281;48.878;9.394;2023-04-03T08:14:12;9.40;98.90
10468;DHT22;5281;48.878;9.394;2023-04-03T08:16:42;9.10;99.50
10468;DHT22;5281;48.878;9.394;2023-04-03T08:19:09;8.90;99.90
10468;DHT22;5281;48.878;9.394;2023-04-03T08:21:36;8.80;99.90
10468;DHT22;5281;48.878;9.394;2023-04-03T08:24:03;8.60;99.90
10468;DHT22;5281;48.878;9.394;2023-04-03T08:26:32;8.70;99.90
10468;DHT22;5281;48.878;9.394;2023-04-03T08:28:59;8.90;99.90
10468;DHT22;5281;48.878;9.394;2023-04-03T08:31:26;9.10;99.90
10468;DHT22;5281;48.878;9.394;2023-04-03T08:33:53;9.20;99.80
10468;DHT22;5281;48.878;9.394;2023-04-03T08:36:21;9.40;99.80
10468;DHT22;5281;48.878;9.394;2023-04-03T08:38:48;9.70;99.40
10468;DHT22;5281;48.878;9.394;2023-04-03T08:41:20;9.70;99.70
10468;DHT22;5281;48.878;9.394;2023-04-03T08:44:11;9.80;99.40
10468;DHT22;5281;48.878;9.394;2023-04-03T08:46:50;9.70;99.40
10468;DHT22;5281;48.878;9.394;2023-04-03T08:49:24;9.60;98.90
10468;DHT22;5281;48.878;9.394;2023-04-03T08:51:53;9.40;99.10
10468;DHT22;5281;48.878;9.394;2023-04-03T08:54:26;9.20;98.90
10468;DHT22;5281;48.878;9.394;2023-04-03T08:56:55;8.80;99.10
10468;DHT22;5281;48.878;9.394;2023-04-03T08:59:28;8.60;99.60
10468;DHT22;5281;48.878;9.394;2023-04-03T09:01:57;8.80;99.90
10468;DHT22;5281;48.878;9.394;2023-04-03T09:04:28;9.20;99.70
10468;DHT22;5281;48.878;9.394;2023-04-03T09:07:02;9.50;98.80
10468;DHT22;5281;48.878;9.394;2023-04-03T09:09:32;9.60;98.60
10468;DHT22;5281;48.878;9.394;2023-04-03T09:12:06;9.60;98.80
10468;DHT22;5281;48.878;9.394;2023-04-03T09:14:39;9.70;98.50
10468;DHT22;5281;48.878;9.394;2023-04-03T09:17:15;9.80;98.20
10468;DHT22;5281;48.878;9.394;2023-04-03T09:19:51;9.60;98.40
10468;DHT22;5281;48.878;9.394;2023-04-03T09:22:24;9.50;98.30
10468;DHT22;5281;48.878;9.394;2023-04-03T09:24:57;9.50;98.30
10468;DHT22;5281;48.878;9.394;2023-04-03T09:27:26;9.30;98.50
10468;DHT22;5281;48.878;9.394;2023-04-03T09:29:56;9.20;99.20
10468;DHT22;5281;48.878;9.394;2023-04-03T09:32:26;9.30;98.70
10468;DHT22;5281;48.878;9.394;2023-04-03T09:34:56;9.40;99.60
10468;DHT22;5281;48.878;9.394;2023-04-03T09:37:39;9.60;98.80
10468;DHT22;5281;48.878;9.394;2023-04-03T09:40:28;9.70;98.80
10468;DHT22;5281;48.878;9.394;2023-04-03T09:42:56;9.90;98.50
10468;DHT22;5281;48.878;9.394;2023-04-03T09:45:27;9.90;98.20
10468;DHT22;5281;48.878;9.394;2023-04-03T09:48:06;9.70;98.30
10468;DHT22;5281;48.878;9.394;2023-04-03T09:50:33;9.70;98.00
10468;DHT22;5281;48.878;9.394;2023-04-03T09:53:05;9.50;97.90
10468;DHT22;5281;48.878;9.394;2023-04-03T09:55:42;9.50;98.10
10468;DHT22;5281;48.878;9.394;2023-04-03T09:58:25;9.60;98.20
10468;DHT22;5281;48.878;9.394;2023-04-03T10:00:58;9.70;98.10
10468;DHT22;5281;48.878;9.394;2023-04-03T10:03:29;9.90;97.70
10468;DHT22;5281;48.878;9.394;2023-04-03T10:05:57;10.10;97.60
10468;DHT22;5281;48.878;9.394;2023-04-03T10:08:27;9.90;97.60
10468;DHT22;5281;48.878;9.394;2023-04-03T10:11:12;9.60;97.50
10468;DHT22;5281;48.878;9.394;2023-04-03T10:13:54;9.40;97.60
10468;DHT22;5281;48.878;9.394;2023-04-03T10:16:27;9.30;97.00
10468;DHT22;5281;48.878;9.394;2023-04-03T10:19:09;9.20;97.00
10468;DHT22;5281;48.878;9.394;2023-04-03T10:21:44;9.10;97.10
10468;DHT22;5281;48.878;9.394;2023-04-03T10:24:14;9.10;96.60
10468;DHT22;5281;48.878;9.394;2023-04-03T10:26:52;9.20;96.30
10468;DHT22;5281;48.878;9.394;2023-04-03T10:29:31;9.30;96.20
10468;DHT22;5281;48.878;9.394;2023-04-03T10:32:15;9.40;95.20
10468;DHT22;5281;48.878;9.394;2023-04-03T10:34:50;9.60;94.40
10468;DHT22;5281;48.878;9.394;2023-04-03T10:37:24;9.60;94.30
10468;DHT22;5281;48.878;9.394;2023-04-03T10:39:57;9.60;94.30
10468;DHT22;5281;48.878;9.394;2023-04-03T10:42:28;9.50;93.70
10468;DHT22;5281;48.878;9.394;2023-04-03T10:45:10;9.30;93.60
10468;DHT22;5281;48.878;9.394;2023-04-03T10:47:57;9.10;93.50
10468;DHT22;5281;48.878;9.394;2023-04-03T10:50:43;9.10;94.50
10468;DHT22;5281;48.878;9.394;2023-04-03T10:53:19;9.30;95.90
10468;DHT22;5281;48.878;9.394;2023-04-03T10:55:53;9.20;96.30
10468;DHT22;5281;48.878;9.394;2023-04-03T10:58:28;9.00;96.40
10468;DHT22;5281;48.878;9.394;2023-04-03T11:00:59;9.00;96.60
10468;DHT22;5281;48.878;9.394;2023-04-03T11:03:31;9.00;96.80
10468;DHT22;5281;48.878;9.394;2023-04-03T11:06:01;8.90;96.90
10468;DHT22;5281;48.878;9.394;2023-04-03T11:08:34;8.90;97.10
10468;DHT22;5281;48.878;9.394;2023-04-03T11:11:04;8.90;96.60
10468;DHT22;5281;48.878;9.394;2023-04-03T11:13:35;8.90;96.80
10468;DHT22;5281;48.878;9.394;2023-04-03T11:16:04;9.10;96.90
10468;DHT22;5281;48.878;9.394;2023-04-03T11:18:37;9.40;97.00
10468;DHT22;5281;48.878;9.394;2023-04-03T11:21:09;9.70;95.90
10468;DHT22;5281;48.878;9.394;2023-04-03T11:23:40;9.80;94.70
10468;DHT22;5281;48.878;9.394;2023-04-03T11:26:12;9.80;94.20
10468;DHT22;5281;48.878;9.394;2023-04-03T11:28:40;10.00;94.10
10468;DHT22;5281;48.878;9.394;2023-04-03T11:31:15;10.00;94.00
10468;DHT22;5281;48.878;9.394;2023-04-03T11:33:55;10.00;94.10
10468;DHT22;5281;48.878;9.394;2023-04-03T11:36:26;10.00;95.20
10468;DHT22;5281;48.878;9.394;2023-04-03T11:38:58;9.70;95.50
10468;DHT22;5281;48.878;9.394;2023-04-03T11:41:28;9.70;95.80
10468;DHT22;5281;48.878;9.394;2023-04-03T11:43:58;9.70;95.20
10468;DHT22;5281;48.878;9.394;2023-04-03T11:46:49;9.80;95.30
10468;DHT22;5281;48.878;9.394;2023-04-03T11:55:43;10.50;92.60
10468;DHT22;5281;48.878;9.394;2023-04-03T11:58:13;10.50;91.80
10468;DHT22;5281;48.878;9.394;2023-04-03T12:00:56;10.30;91.70
10468;DHT22;5281;48.878;9.394;2023-04-03T12:07:00;10.20;92.20
10468;DHT22;5281;48.878;9.394;2023-04-03T12:09:32;10.10;92.20
10468;DHT22;5281;48.878;9.394;2023-04-03T12:12:22;10.10;92.00
10468;DHT22;5281;48.878;9.394;2023-04-03T12:14:51;10.00;92.40
10468;DHT22;5281;48.878;9.394;2023-04-03T12:17:22;9.90;92.20
10468;DHT22;5281;48.878;9.394;2023-04-03T12:19:50;9.80;92.80
10468;DHT22;5281;48.878;9.394;2023-04-03T12:22:18;9.80;93.00
10468;DHT22;5281;48.878;9.394;2023-04-03T12:24:47;9.80;93.10
10468;DHT22;5281;48.878;9.394;2023-04-03T12:27:36;9.80;93.10
10468;DHT22;5281;48.878;9.394;2023-04-03T12:30:20;9.90;91.80
10468;DHT22;5281;48.878;9.394;2023-04-03T12:33:02;9.90;91.50
10468;DHT22;5281;48.878;9.394;2023-04-03T12:35:35;9.90;91.10
10468;DHT22;5281;48.878;9.394;2023-04-03T12:38:33;10.10;90.40
10468;DHT22;5281;48.878;9.394;2023-04-03T12:41:19;10.30;90.70
10468;DHT22;5281;48.878;9.394;2023-04-03T12:44:01;10.40;91.20
10468;DHT22;5281;48.878;9.394;2023-04-03T12:46:36;10.30;91.40
10468;DHT22;5281;48.878;9.394;2023-04-03T12:49:15;10.20;90.80
10468;DHT22;5281;48.878;9.394;2023-04-03T12:51:46;10.30;90.30
10468;DHT22;5281;48.878;9.394;2023-04-03T12:54:16;10.50;91.10
10468;DHT22;5281;48.878;9.394;2023-04-03T12:56:43;10.70;91.10
10468;DHT22;5281;48.878;9.394;2023-04-03T12:59:16;10.60;90.10
10468;DHT22;5281;48.878;9.394;2023-04-03T13:01:53;10.50;90.40
10468;DHT22;5281;48.878;9.394;2023-04-03T13:04:20;10.50;85.80
10468;DHT22;5281;48.878;9.394;2023-04-03T13:06:47;10.40;87.70
10468;DHT22;5281;48.878;9.394;2023-04-03T13:09:20;10.40;89.70
10468;DHT22;5281;48.878;9.394;2023-04-03T13:11:49;10.60;89.30
10468;DHT22;5281;48.878;9.394;2023-04-03T13:14:20;10.80;89.70
10468;DHT22;5281;48.878;9.394;2023-04-03T13:16:54;10.80;89.30
10468;DHT22;5281;48.878;9.394;2023-04-03T13:19:22;10.50;89.00
10468;DHT22;5281;48.878;9.394;2023-04-03T13:21:56;10.30;90.00
10468;DHT22;5281;48.878;9.394;2023-04-03T13:24:26;10.30;89.90
10468;DHT22;5281;48.878;9.394;2023-04-03T13:26:53;10.20;89.70
10468;DHT22;5281;48.878;9.394;2023-04-03T13:29:25;10.10;89.00
10468;DHT22;5281;48.878;9.394;2023-04-03T13:31:55;10.00;89.40
10468;DHT22;5281;48.878;9.394;2023-04-03T13:34:24;10.00;90.20
10468;DHT22;5281;48.878;9.394;2023-04-03T13:36:57;10.20;90.60
10468;DHT22;5281;48.878;9.394;2023-04-03T13:39:26;10.30;90.00
10468;DHT22;5281;48.878;9.394;2023-04-03T13:41:55;10.50;88.90
10468;DHT22;5281;48.878;9.394;2023-04-03T13:44:30;10.50;86.50
10468;DHT22;5281;48.878;9.394;2023-04-03T13:46:59;10.20;87.70
10468;DHT22;5281;48.878;9.394;2023-04-03T13:49:34;10.20;87.40
10468;DHT22;5281;48.878;9.394;2023-04-03T13:52:17;10.10;87.40
10468;DHT22;5281;48.878;9.394;2023-04-03T13:54:47;10.20;87.40
10468;DHT22;5281;48.878;9.394;2023-04-03T13:57:17;10.20;87.40
10468;DHT22;5281;48.878;9.394;2023-04-03T13:59:45;10.20;87.40
10468;DHT22;5281;48.878;9.394;2023-04-03T14:02:16;10.30;87.50
10468;DHT22;5281;48.878;9.394;2023-04-03T14:04:50;10.40;87.60
10468;DHT22;5281;48.878;9.394;2023-04-03T14:07:19;10.40;87.90
10468;DHT22;5281;48.878;9.394;2023-04-03T14:09:47;10.40;87.50
10468;DHT22;5281;48.878;9.394;2023-04-03T14:12:16;10.30;86.90
10468;DHT22;5281;48.878;9.394;2023-04-03T14:14:45;10.20;87.40
10468;DHT22;5281;48.878;9.394;2023-04-03T14:17:15;10.40;86.30
10468;DHT22;5281;48.878;9.394;2023-04-03T14:19:42;10.40;84.90
10468;DHT22;5281;48.878;9.394;2023-04-03T14:22:14;10.40;85.00
10468;DHT22;5281;48.878;9.394;2023-04-03T14:24:41;10.50;84.50
10468;DHT22;5281;48.878;9.394;2023-04-03T14:27:16;10.50;84.10
10468;DHT22;5281;48.878;9.394;2023-04-03T14:29:43;10.50;84.10
10468;DHT22;5281;48.878;9.394;2023-04-03T14:32:12;10.40;83.20
10468;DHT22;5281;48.878;9.394;2023-04-03T14:34:39;10.50;82.80
10468;DHT22;5281;48.878;9.394;2023-04-03T14:37:10;10.50;82.30
10468;DHT22;5281;48.878;9.394;2023-04-03T14:39:37;10.40;83.40
10468;DHT22;5281;48.878;9.394;2023-04-03T14:42:04;10.30;84.40
10468;DHT22;5281;48.878;9.394;2023-04-03T14:44:31;10.20;82.90
10468;DHT22;5281;48.878;9.394;2023-04-03T14:46:57;10.10;82.80
10468;DHT22;5281;48.878;9.394;2023-04-03T14:49:28;10.00;82.10
10468;DHT22;5281;48.878;9.394;2023-04-03T14:51:55;10.00;82.60
10468;DHT22;5281;48.878;9.394;2023-04-03T14:54:23;10.10;82.90
10468;DHT22;5281;48.878;9.394;2023-04-03T14:56:51;10.10;82.80
10468;DHT22;5281;48.878;9.394;2023-04-03T14:59:18;10.20;82.80
10468;DHT22;5281;48.878;9.394;2023-04-03T15:01:45;10.20;83.30
10468;DHT22;5281;48.878;9.394;2023-04-03T15:04:13;10.20;82.00
10468;DHT22;5281;48.878;9.394;2023-04-03T15:06:42;10.00;83.70
10468;DHT22;5281;48.878;9.394;2023-04-03T15:09:18;9.90;85.20
10468;DHT22;5281;48.878;9.394;2023-04-03T15:11:46;9.90;83.40
10468;DHT22;5281;48.878;9.394;2023-04-03T15:14:12;10.00;81.10
10468;DHT22;5281;48.878;9.394;2023-04-03T15:16:39;10.10;80.90
10468;DHT22;5281;48.878;9.394;2023-04-03T15:19:06;10.10;80.40
10468;DHT22;5281;48.878;9.394;2023-04-03T15:21:33;10.10;80.60
10468;DHT22;5281;48.878;9.394;2023-04-03T15:24:01;10.20;80.00
10468;DHT22;5281;48.878;9.394;2023-04-03T15:26:28;10.20;80.50
10468;DHT22;5281;48.878;9.394;2023-04-03T15:28:55;10.20;80.90
10468;DHT22;5281;48.878;9.394;2023-04-03T15:31:22;10.00;80.80
10468;DHT22;5281;48.878;9.394;2023-04-03T15:33:48;9.80;82.70
10468;DHT22;5281;48.878;9.394;2023-04-03T15:36:15;9.60;83.20
10468;DHT22;5281;48.878;9.394;2023-04-03T15:38:42;9.50;83.10
10468;DHT22;5281;48.878;9.394;2023-04-03T15:41:10;9.50;82.40
10468;DHT22;5281;48.878;9.394;2023-04-03T15:43:37;9.40;81.90
10468;DHT22;5281;48.878;9.394;2023-04-03T15:46:04;9.30;82.10
10468;DHT22;5281;48.878;9.394;2023-04-03T15:48:31;9.30;81.20
10468;DHT22;5281;48.878;9.394;2023-04-03T15:50:58;9.30;80.90
10468;DHT22;5281;48.878;9.394;2023-04-03T15:53:26;9.50;81.10
10468;DHT22;5281;48.878;9.394;2023-04-03T15:55:52;9.70;81.50
10468;DHT22;5281;48.878;9.394;2023-04-03T15:58:20;9.80;81.60
10468;DHT22;5281;48.878;9.394;2023-04-03T16:00:47;9.80;82.10
10468;DHT22;5281;48.878;9.394;2023-04-03T16:03:16;9.80;83.70
10468;DHT22;5281;48.878;9.394;2023-04-03T16:05:44;9.80;83.40
10468;DHT22;5281;48.878;9.394;2023-04-03T16:08:12;9.80;82.00
10468;DHT22;5281;48.878;9.394;2023-04-03T16:10:39;9.70;82.60
10468;DHT22;5281;48.878;9.394;2023-04-03T16:13:06;9.80;81.50
10468;DHT22;5281;48.878;9.394;2023-04-03T16:15:34;9.80;81.40
10468;DHT22;5281;48.878;9.394;2023-04-03T16:18:02;9.80;81.70
10468;DHT22;5281;48.878;9.394;2023-04-03T16:20:30;9.80;82.80
10468;DHT22;5281;48.878;9.394;2023-04-03T16:22:57;9.80;82.20
10468;DHT22;5281;48.878;9.394;2023-04-03T16:25:25;9.90;82.40